sensor_id;sensor_type;location;lat;lon;timestamp;temperature;humidity
25923;DHT22;13725;51.170;4.442;2022-08-21T00:02:24;17.10;99.90
25923;DHT22;13725;51.170;4.442;2022-08-21T00:04:50;17.10;99.90
25923;DHT22;13725;51.170;4.442;2022-08-21T00:07:20;17.10;99.90
25923;DHT22;13725;51.170;4.442;2022-08-21T00:09:47;17.10;99.90
25923;DHT22;13725;51.170;4.442;2022-08-21T00:12:13;17.00;99.90
25923;DHT22;13725;51.170;4.442;2022-08-21T00:14:39;17.10;99.90
25923;DHT22;13725;51.170;4.442;2022-08-21T00:17:05;17.00;99.90
25923;DHT22;13725;51.170;4.442;2022-08-21T00:19:32;17.00;99.90
25923;DHT22;13725;51.170;4.442;2022-08-21T00:21:58;17.00;99.90
25923;DHT22;13725;51.170;4.442;2022-08-21T00:24:24;16.90;99.90
25923;DHT22;13725;51.170;4.442;2022-08-21T00:26:51;16.90;99.90
25923;DHT22;13725;51.170;4.442;2022-08-21T00:29:17;16.90;99.90
25923;DHT22;13725;51.170;4.442;2022-08-21T00:31:43;16.80;99.90
25923;DHT22;13725;51.170;4.442;2022-08-21T00:34:11;16.80;99.90
25923;DHT22;13725;51.170;4.442;2022-08-21T00:36:37;16.70;99.90
25923;DHT22;13725;51.170;4.442;2022-08-21T00:42:44;16.70;99.90
25923;DHT22;13725;51.170;4.442;2022-08-21T00:45:10;16.70;99.90
25923;DHT22;13725;51.170;4.442;2022-08-21T00:47:36;16.60;99.90
25923;DHT22;13725;51.170;4.442;2022-08-21T00:50:05;16.60;99.90
25923;DHT22;13725;51.170;4.442;2022-08-21T00:52:32;16.60;99.90
25923;DHT22;13725;51.170;4.442;2022-08-21T00:55:00;16.60;99.90
25923;DHT22;13725;51.170;4.442;2022-08-21T00:57:34;16.50;99.90
25923;DHT22;13725;51.170;4.442;2022-08-21T01:00:06;16.60;99.90
25923;DHT22;13725;51.170;4.442;2022-08-21T01:02:32;16.40;99.90
25923;DHT22;13725;51.170;4.442;2022-08-21T01:04:58;16.40;99.90
25923;DHT22;13725;51.170;4.442;2022-08-21T01:07:23;16.30;99.90
25923;DHT22;13725;51.170;4.442;2022-08-21T01:09:51;16.20;99.90
25923;DHT22;13725;51.170;4.442;2022-08-21T01:12:18;16.20;99.90
25923;DHT22;13725;51.170;4.442;2022-08-21T01:14:44;16.20;99.90
25923;DHT22;13725;51.170;4.442;2022-08-21T01:17:12;16.10;99.90
25923;DHT22;13725;51.170;4.442;2022-08-21T01:19:39;16.20;99.90
25923;DHT22;13725;51.170;4.442;2022-08-21T01:22:05;16.10;99.90
25923;DHT22;13725;51.170;4.442;2022-08-21T01:24:31;16.00;99.90
25923;DHT22;13725;51.170;4.442;2022-08-21T01:26:58;16.00;99.90
25923;DHT22;13725;51.170;4.442;2022-08-21T01:29:39;16.00;99.90
25923;DHT22;13725;51.170;4.442;2022-08-21T01:32:13;16.00;99.90
25923;DHT22;13725;51.170;4.442;2022-08-21T01:34:42;15.90;99.90
25923;DHT22;13725;51.170;4.442;2022-08-21T01:37:08;15.90;99.90
25923;DHT22;13725;51.170;4.442;2022-08-21T01:39:35;15.90;99.90
25923;DHT22;13725;51.170;4.442;2022-08-21T01:42:01;15.90;99.90
25923;DHT22;13725;51.170;4.442;2022-08-21T01:44:27;15.90;99.90
25923;DHT22;13725;51.170;4.442;2022-08-21T01:46:54;15.80;99.90
25923;DHT22;13725;51.170;4.442;2022-08-21T01:49:20;15.80;99.90
25923;DHT22;13725;51.170;4.442;2022-08-21T01:51:46;15.90;99.90
25923;DHT22;13725;51.170;4.442;2022-08-21T01:54:12;15.80;99.90
25923;DHT22;13725;51.170;4.442;2022-08-21T01:56:41;15.80;99.90
25923;DHT22;13725;51.170;4.442;2022-08-21T01:59:08;15.70;99.90
25923;DHT22;13725;51.170;4.442;2022-08-21T02:01:34;15.60;99.90
25923;DHT22;13725;51.170;4.442;2022-08-21T02:04:00;15.70;99.90
25923;DHT22;13725;51.170;4.442;2022-08-21T02:06:26;15.60;99.90
25923;DHT22;13725;51.170;4.442;2022-08-21T02:08:52;15.60;99.90
25923;DHT22;13725;51.170;4.442;2022-08-21T02:11:18;15.60;99.90
25923;DHT22;13725;51.170;4.442;2022-08-21T02:13:44;15.60;99.90
25923;DHT22;13725;51.170;4.442;2022-08-21T02:16:11;15.60;99.90
25923;DHT22;13725;51.170;4.442;2022-08-21T02:18:37;15.50;99.90
25923;DHT22;13725;51.170;4.442;2022-08-21T02:21:04;15.50;99.90
25923;DHT22;13725;51.170;4.442;2022-08-21T02:23:30;15.50;99.90
25923;DHT22;13725;51.170;4.442;2022-08-21T02:26:00;15.50;99.90
25923;DHT22;13725;51.170;4.442;2022-08-21T02:28:26;15.40;99.90
25923;DHT22;13725;51.170;4.442;2022-08-21T02:30:53;15.40;99.90
25923;DHT22;13725;51.170;4.442;2022-08-21T02:33:19;15.40;99.90
25923;DHT22;13725;51.170;4.442;2022-08-21T02:35:46;15.40;99.90
25923;DHT22;13725;51.170;4.442;2022-08-21T02:38:15;15.40;99.90
25923;DHT22;13725;51.170;4.442;2022-08-21T02:40:43;15.40;99.90
25923;DHT22;13725;51.170;4.442;2022-08-21T02:43:10;15.40;99.90
25923;DHT22;13725;51.170;4.442;2022-08-21T02:45:36;15.30;99.90
25923;DHT22;13725;51.170;4.442;2022-08-21T02:48:08;15.30;99.90
25923;DHT22;13725;51.170;4.442;2022-08-21T02:50:48;15.30;99.90
25923;DHT22;13725;51.170;4.442;2022-08-21T02:53:16;15.30;99.90
25923;DHT22;13725;51.170;4.442;2022-08-21T02:55:43;15.20;99.90
25923;DHT22;13725;51.170;4.442;2022-08-21T02:58:10;15.20;99.90
25923;DHT22;13725;51.170;4.442;2022-08-21T03:00:37;15.20;99.90
25923;DHT22;13725;51.170;4.442;2022-08-21T03:03:03;15.30;99.90
25923;DHT22;13725;51.170;4.442;2022-08-21T03:05:30;15.20;99.90
25923;DHT22;13725;51.170;4.442;2022-08-21T03:07:58;15.10;99.90
25923;DHT22;13725;51.170;4.442;2022-08-21T03:10:24;15.10;99.90
25923;DHT22;13725;51.170;4.442;2022-08-21T03:12:51;15.10;99.90
25923;DHT22;13725;51.170;4.442;2022-08-21T03:15:19;15.10;99.90
25923;DHT22;13725;51.170;4.442;2022-08-21T03:17:47;15.10;99.90
25923;DHT22;13725;51.170;4.442;2022-08-21T03:20:15;15.10;99.90
25923;DHT22;13725;51.170;4.442;2022-08-21T03:22:41;15.10;99.90
25923;DHT22;13725;51.170;4.442;2022-08-21T03:25:08;15.10;99.90
25923;DHT22;13725;51.170;4.442;2022-08-21T03:27:34;15.10;99.90
25923;DHT22;13725;51.170;4.442;2022-08-21T03:30:01;15.10;99.90
25923;DHT22;13725;51.170;4.442;2022-08-21T03:32:28;15.10;99.90
25923;DHT22;13725;51.170;4.442;2022-08-21T03:34:54;15.00;99.90
25923;DHT22;13725;51.170;4.442;2022-08-21T03:37:20;15.00;99.90
25923;DHT22;13725;51.170;4.442;2022-08-21T03:39:45;15.00;99.90
25923;DHT22;13725;51.170;4.442;2022-08-21T03:42:11;15.00;99.90
25923;DHT22;13725;51.170;4.442;2022-08-21T03:44:38;15.00;99.90
25923;DHT22;13725;51.170;4.442;2022-08-21T03:47:05;15.00;99.90
25923;DHT22;13725;51.170;4.442;2022-08-21T03:49:32;15.00;99.90
25923;DHT22;13725;51.170;4.442;2022-08-21T03:51:59;15.00;99.90
25923;DHT22;13725;51.170;4.442;2022-08-21T03:54:25;15.00;99.90
25923;DHT22;13725;51.170;4.442;2022-08-21T03:56:51;14.90;99.90
25923;DHT22;13725;51.170;4.442;2022-08-21T03:59:17;14.90;99.90
25923;DHT22;13725;51.170;4.442;2022-08-21T04:01:57;14.90;99.90
25923;DHT22;13725;51.170;4.442;2022-08-21T04:04:24;14.90;99.90
25923;DHT22;13725;51.170;4.442;2022-08-21T04:06:50;14.90;99.90
25923;DHT22;13725;51.170;4.442;2022-08-21T04:09:17;14.90;99.90
25923;DHT22;13725;51.170;4.442;2022-08-21T04:11:43;14.90;99.90
25923;DHT22;13725;51.170;4.442;2022-08-21T04:14:09;14.90;99.90
25923;DHT22;13725;51.170;4.442;2022-08-21T04:16:34;14.90;99.90
25923;DHT22;13725;51.170;4.442;2022-08-21T04:19:00;14.90;99.90
25923;DHT22;13725;51.170;4.442;2022-08-21T04:21:26;14.90;99.90
25923;DHT22;13725;51.170;4.442;2022-08-21T04:23:54;14.90;99.90
25923;DHT22;13725;51.170;4.442;2022-08-21T04:26:20;14.90;99.90
25923;DHT22;13725;51.170;4.442;2022-08-21T04:28:46;14.80;99.90
25923;DHT22;13725;51.170;4.442;2022-08-21T04:31:12;14.80;99.90
25923;DHT22;13725;51.170;4.442;2022-08-21T04:33:37;14.80;99.90
25923;DHT22;13725;51.170;4.442;2022-08-21T04:36:04;14.80;99.90
25923;DHT22;13725;51.170;4.442;2022-08-21T04:38:30;14.80;99.90
25923;DHT22;13725;51.170;4.442;2022-08-21T04:40:57;14.80;99.90
25923;DHT22;13725;51.170;4.442;2022-08-21T04:43:23;14.90;99.90
25923;DHT22;13725;51.170;4.442;2022-08-21T04:45:50;14.80;99.90
25923;DHT22;13725;51.170;4.442;2022-08-21T04:48:19;14.80;99.90
25923;DHT22;13725;51.170;4.442;2022-08-21T04:53:25;14.80;99.90
25923;DHT22;13725;51.170;4.442;2022-08-21T04:55:52;14.80;99.90
25923;DHT22;13725;51.170;4.442;2022-08-21T04:58:21;14.80;99.90
25923;DHT22;13725;51.170;4.442;2022-08-21T05:00:48;14.90;99.90
25923;DHT22;13725;51.170;4.442;2022-08-21T05:03:15;14.90;99.90
25923;DHT22;13725;51.170;4.442;2022-08-21T05:05:42;14.90;99.90
25923;DHT22;13725;51.170;4.442;2022-08-21T05:08:11;14.90;99.90
25923;DHT22;13725;51.170;4.442;2022-08-21T05:10:38;15.00;99.90
25923;DHT22;13725;51.170;4.442;2022-08-21T05:13:06;15.00;99.90
25923;DHT22;13725;51.170;4.442;2022-08-21T05:15:32;15.00;99.90
25923;DHT22;13725;51.170;4.442;2022-08-21T05:17:58;15.10;99.90
25923;DHT22;13725;51.170;4.442;2022-08-21T05:20:24;15.10;99.90
25923;DHT22;13725;51.170;4.442;2022-08-21T05:22:49;15.20;99.90
25923;DHT22;13725;51.170;4.442;2022-08-21T05:25:16;15.20;99.90
25923;DHT22;13725;51.170;4.442;2022-08-21T05:27:42;15.30;99.90
25923;DHT22;13725;51.170;4.442;2022-08-21T05:30:08;15.40;99.90
25923;DHT22;13725;51.170;4.442;2022-08-21T05:32:35;15.50;99.90
25923;DHT22;13725;51.170;4.442;2022-08-21T05:35:02;15.50;99.90
25923;DHT22;13725;51.170;4.442;2022-08-21T05:37:28;15.60;99.90
25923;DHT22;13725;51.170;4.442;2022-08-21T05:39:54;15.70;99.90
25923;DHT22;13725;51.170;4.442;2022-08-21T05:42:20;15.80;99.90
25923;DHT22;13725;51.170;4.442;2022-08-21T05:44:45;16.10;99.90
25923;DHT22;13725;51.170;4.442;2022-08-21T05:47:11;16.30;99.90
25923;DHT22;13725;51.170;4.442;2022-08-21T05:49:37;16.90;99.90
25923;DHT22;13725;51.170;4.442;2022-08-21T05:52:03;17.70;99.90
25923;DHT22;13725;51.170;4.442;2022-08-21T05:54:29;18.40;99.90
25923;DHT22;13725;51.170;4.442;2022-08-21T05:56:56;19.10;99.90
25923;DHT22;13725;51.170;4.442;2022-08-21T05:59:22;19.90;99.90
25923;DHT22;13725;51.170;4.442;2022-08-21T06:01:48;20.60;99.90
25923;DHT22;13725;51.170;4.442;2022-08-21T06:04:14;21.70;99.90
25923;DHT22;13725;51.170;4.442;2022-08-21T06:06:40;22.80;99.90
25923;DHT22;13725;51.170;4.442;2022-08-21T06:09:06;23.60;99.90
25923;DHT22;13725;51.170;4.442;2022-08-21T06:11:32;24.40;99.90
25923;DHT22;13725;51.170;4.442;2022-08-21T06:13:58;25.10;99.90
25923;DHT22;13725;51.170;4.442;2022-08-21T06:16:25;25.80;99.90
25923;DHT22;13725;51.170;4.442;2022-08-21T06:18:51;26.40;99.90
25923;DHT22;13725;51.170;4.442;2022-08-21T06:21:17;26.70;99.90
25923;DHT22;13725;51.170;4.442;2022-08-21T06:23:43;27.20;99.90
25923;DHT22;13725;51.170;4.442;2022-08-21T06:26:10;27.70;99.90
25923;DHT22;13725;51.170;4.442;2022-08-21T06:28:36;28.20;99.90
25923;DHT22;13725;51.170;4.442;2022-08-21T06:31:20;28.60;99.90
25923;DHT22;13725;51.170;4.442;2022-08-21T06:33:46;29.20;99.90
25923;DHT22;13725;51.170;4.442;2022-08-21T06:36:12;29.80;99.90
25923;DHT22;13725;51.170;4.442;2022-08-21T06:38:38;30.30;99.90
25923;DHT22;13725;51.170;4.442;2022-08-21T06:41:04;30.40;99.90
25923;DHT22;13725;51.170;4.442;2022-08-21T06:43:30;30.80;99.90
25923;DHT22;13725;51.170;4.442;2022-08-21T06:45:56;31.20;99.90
25923;DHT22;13725;51.170;4.442;2022-08-21T06:48:22;31.70;99.60
25923;DHT22;13725;51.170;4.442;2022-08-21T06:50:48;32.10;98.20
25923;DHT22;13725;51.170;4.442;2022-08-21T06:53:16;32.40;96.70
25923;DHT22;13725;51.170;4.442;2022-08-21T06:55:43;32.50;96.10
25923;DHT22;13725;51.170;4.442;2022-08-21T06:58:09;32.80;95.20
25923;DHT22;13725;51.170;4.442;2022-08-21T07:00:38;32.80;94.80
25923;DHT22;13725;51.170;4.442;2022-08-21T07:03:04;32.80;94.60
25923;DHT22;13725;51.170;4.442;2022-08-21T07:05:30;33.30;93.70
25923;DHT22;13725;51.170;4.442;2022-08-21T07:07:57;33.70;92.50
25923;DHT22;13725;51.170;4.442;2022-08-21T07:10:24;34.30;91.70
25923;DHT22;13725;51.170;4.442;2022-08-21T07:12:50;34.80;90.70
25923;DHT22;13725;51.170;4.442;2022-08-21T07:15:16;35.00;89.20
25923;DHT22;13725;51.170;4.442;2022-08-21T07:17:42;35.40;88.00
25923;DHT22;13725;51.170;4.442;2022-08-21T07:20:08;35.90;86.00
25923;DHT22;13725;51.170;4.442;2022-08-21T07:22:36;36.20;84.40
25923;DHT22;13725;51.170;4.442;2022-08-21T07:25:04;36.70;83.10
25923;DHT22;13725;51.170;4.442;2022-08-21T07:27:30;37.20;81.10
25923;DHT22;13725;51.170;4.442;2022-08-21T07:29:57;37.50;79.60
25923;DHT22;13725;51.170;4.442;2022-08-21T07:32:23;37.70;78.10
25923;DHT22;13725;51.170;4.442;2022-08-21T07:34:48;37.80;77.10
25923;DHT22;13725;51.170;4.442;2022-08-21T07:37:14;38.00;75.60
25923;DHT22;13725;51.170;4.442;2022-08-21T07:39:40;37.40;76.00
25923;DHT22;13725;51.170;4.442;2022-08-21T07:42:06;36.60;76.30
25923;DHT22;13725;51.170;4.442;2022-08-21T07:44:32;36.10;77.20
25923;DHT22;13725;51.170;4.442;2022-08-21T07:47:00;36.10;77.20
25923;DHT22;13725;51.170;4.442;2022-08-21T07:49:27;36.60;76.80
25923;DHT22;13725;51.170;4.442;2022-08-21T07:51:52;37.40;75.70
25923;DHT22;13725;51.170;4.442;2022-08-21T07:54:18;37.90;74.10
25923;DHT22;13725;51.170;4.442;2022-08-21T07:56:44;38.60;73.30
25923;DHT22;13725;51.170;4.442;2022-08-21T07:59:09;39.10;72.00
25923;DHT22;13725;51.170;4.442;2022-08-21T08:01:35;39.70;71.00
25923;DHT22;13725;51.170;4.442;2022-08-21T08:04:01;39.90;69.70
25923;DHT22;13725;51.170;4.442;2022-08-21T08:06:26;39.70;68.90
25923;DHT22;13725;51.170;4.442;2022-08-21T08:08:52;39.40;68.90
25923;DHT22;13725;51.170;4.442;2022-08-21T08:11:18;39.40;68.50
25923;DHT22;13725;51.170;4.442;2022-08-21T08:13:46;39.60;68.10
25923;DHT22;13725;51.170;4.442;2022-08-21T08:16:13;39.70;67.70
25923;DHT22;13725;51.170;4.442;2022-08-21T08:18:39;39.60;68.10
25923;DHT22;13725;51.170;4.442;2022-08-21T08:21:05;39.50;68.30
25923;DHT22;13725;51.170;4.442;2022-08-21T08:23:31;39.20;67.70
25923;DHT22;13725;51.170;4.442;2022-08-21T08:25:58;39.10;67.40
25923;DHT22;13725;51.170;4.442;2022-08-21T08:28:24;39.40;66.40
25923;DHT22;13725;51.170;4.442;2022-08-21T08:30:50;39.40;66.80
25923;DHT22;13725;51.170;4.442;2022-08-21T08:33:17;39.30;66.60
25923;DHT22;13725;51.170;4.442;2022-08-21T08:35:46;39.30;66.70
25923;DHT22;13725;51.170;4.442;2022-08-21T08:38:13;39.40;65.90
25923;DHT22;13725;51.170;4.442;2022-08-21T08:43:13;39.30;65.50
25923;DHT22;13725;51.170;4.442;2022-08-21T08:45:42;39.70;65.10
25923;DHT22;13725;51.170;4.442;2022-08-21T08:48:10;40.50;64.60
25923;DHT22;13725;51.170;4.442;2022-08-21T08:50:57;41.10;63.60
25923;DHT22;13725;51.170;4.442;2022-08-21T08:53:35;41.80;63.00
25923;DHT22;13725;51.170;4.442;2022-08-21T08:56:04;42.10;61.90
25923;DHT22;13725;51.170;4.442;2022-08-21T08:58:34;42.60;60.60
25923;DHT22;13725;51.170;4.442;2022-08-21T09:01:05;43.30;59.90
25923;DHT22;13725;51.170;4.442;2022-08-21T09:03:40;43.50;58.60
25923;DHT22;13725;51.170;4.442;2022-08-21T09:06:31;42.90;58.40
25923;DHT22;13725;51.170;4.442;2022-08-21T09:09:11;42.20;58.80
25923;DHT22;13725;51.170;4.442;2022-08-21T09:12:04;41.30;59.30
25923;DHT22;13725;51.170;4.442;2022-08-21T09:14:58;41.30;59.50
25923;DHT22;13725;51.170;4.442;2022-08-21T09:17:46;41.40;60.60
25923;DHT22;13725;51.170;4.442;2022-08-21T09:23:06;40.60;60.10
25923;DHT22;13725;51.170;4.442;2022-08-21T09:25:55;41.40;59.10
25923;DHT22;13725;51.170;4.442;2022-08-21T09:28:24;42.30;58.40
25923;DHT22;13725;51.170;4.442;2022-08-21T09:30:50;42.80;58.10
25923;DHT22;13725;51.170;4.442;2022-08-21T09:33:19;43.20;57.10
25923;DHT22;13725;51.170;4.442;2022-08-21T09:35:55;43.70;56.70
25923;DHT22;13725;51.170;4.442;2022-08-21T09:38:33;43.20;56.80
25923;DHT22;13725;51.170;4.442;2022-08-21T09:41:05;42.70;57.40
25923;DHT22;13725;51.170;4.442;2022-08-21T09:43:32;41.60;57.90
25923;DHT22;13725;51.170;4.442;2022-08-21T09:46:10;40.00;59.00
25923;DHT22;13725;51.170;4.442;2022-08-21T09:48:48;38.40;61.10
25923;DHT22;13725;51.170;4.442;2022-08-21T09:51:24;36.50;63.80
25923;DHT22;13725;51.170;4.442;2022-08-21T09:54:17;35.00;66.20
25923;DHT22;13725;51.170;4.442;2022-08-21T09:56:59;34.00;67.90
25923;DHT22;13725;51.170;4.442;2022-08-21T09:59:45;33.60;68.90
25923;DHT22;13725;51.170;4.442;2022-08-21T10:02:33;32.90;71.00
25923;DHT22;13725;51.170;4.442;2022-08-21T10:05:08;33.00;70.20
25923;DHT22;13725;51.170;4.442;2022-08-21T10:07:37;32.60;70.80
25923;DHT22;13725;51.170;4.442;2022-08-21T10:10:14;31.90;72.60
25923;DHT22;13725;51.170;4.442;2022-08-21T10:16:18;31.50;74.70
25923;DHT22;13725;51.170;4.442;2022-08-21T10:19:30;33.70;71.40
25923;DHT22;13725;51.170;4.442;2022-08-21T10:27:36;34.90;68.90
25923;DHT22;13725;51.170;4.442;2022-08-21T10:35:28;40.00;63.00
25923;DHT22;13725;51.170;4.442;2022-08-21T10:41:22;38.90;62.30
25923;DHT22;13725;51.170;4.442;2022-08-21T10:46:54;38.80;61.00
25923;DHT22;13725;51.170;4.442;2022-08-21T10:49:40;37.20;63.80
25923;DHT22;13725;51.170;4.442;2022-08-21T10:52:35;36.70;65.00
25923;DHT22;13725;51.170;4.442;2022-08-21T10:55:11;36.30;65.80
25923;DHT22;13725;51.170;4.442;2022-08-21T11:00:32;37.20;65.00
25923;DHT22;13725;51.170;4.442;2022-08-21T11:03:20;37.20;63.90
25923;DHT22;13725;51.170;4.442;2022-08-21T11:05:55;36.70;63.80
25923;DHT22;13725;51.170;4.442;2022-08-21T11:08:27;37.10;63.90
25923;DHT22;13725;51.170;4.442;2022-08-21T11:14:00;35.70;65.10
25923;DHT22;13725;51.170;4.442;2022-08-21T11:21:45;36.80;65.50
25923;DHT22;13725;51.170;4.442;2022-08-21T11:24:17;37.30;64.30
25923;DHT22;13725;51.170;4.442;2022-08-21T11:26:56;38.60;62.90
25923;DHT22;13725;51.170;4.442;2022-08-21T11:29:44;39.40;61.60
25923;DHT22;13725;51.170;4.442;2022-08-21T11:35:19;38.50;61.90
25923;DHT22;13725;51.170;4.442;2022-08-21T11:37:56;39.30;61.00
25923;DHT22;13725;51.170;4.442;2022-08-21T11:43:37;40.80;59.30
25923;DHT22;13725;51.170;4.442;2022-08-21T11:54:41;42.20;58.10
25923;DHT22;13725;51.170;4.442;2022-08-21T11:57:26;43.50;56.80
25923;DHT22;13725;51.170;4.442;2022-08-21T12:00:11;44.30;55.60
25923;DHT22;13725;51.170;4.442;2022-08-21T12:02:45;44.20;54.60
25923;DHT22;13725;51.170;4.442;2022-08-21T12:05:23;42.90;54.70
25923;DHT22;13725;51.170;4.442;2022-08-21T12:08:02;41.70;56.70
25923;DHT22;13725;51.170;4.442;2022-08-21T12:10:34;40.80;57.50
25923;DHT22;13725;51.170;4.442;2022-08-21T12:13:21;39.80;59.00
25923;DHT22;13725;51.170;4.442;2022-08-21T12:15:47;38.50;58.70
25923;DHT22;13725;51.170;4.442;2022-08-21T12:18:29;37.10;60.20
25923;DHT22;13725;51.170;4.442;2022-08-21T12:21:22;36.70;61.10
25923;DHT22;13725;51.170;4.442;2022-08-21T12:26:52;37.70;61.60
25923;DHT22;13725;51.170;4.442;2022-08-21T12:29:26;38.60;60.70
25923;DHT22;13725;51.170;4.442;2022-08-21T12:37:11;36.00;62.80
25923;DHT22;13725;51.170;4.442;2022-08-21T12:39:44;35.00;63.90
25923;DHT22;13725;51.170;4.442;2022-08-21T12:42:24;34.90;65.00
25923;DHT22;13725;51.170;4.442;2022-08-21T12:45:00;35.30;64.50
25923;DHT22;13725;51.170;4.442;2022-08-21T12:47:43;35.20;63.50
25923;DHT22;13725;51.170;4.442;2022-08-21T12:50:16;34.60;64.70
25923;DHT22;13725;51.170;4.442;2022-08-21T12:52:51;34.30;66.30
25923;DHT22;13725;51.170;4.442;2022-08-21T12:55:28;34.30;66.20
25923;DHT22;13725;51.170;4.442;2022-08-21T12:57:54;34.50;66.70
25923;DHT22;13725;51.170;4.442;2022-08-21T13:00:22;34.40;66.20
25923;DHT22;13725;51.170;4.442;2022-08-21T13:02:49;34.10;65.90
25923;DHT22;13725;51.170;4.442;2022-08-21T13:05:26;34.30;66.00
25923;DHT22;13725;51.170;4.442;2022-08-21T13:07:53;34.20;66.00
25923;DHT22;13725;51.170;4.442;2022-08-21T13:10:28;34.30;65.40
25923;DHT22;13725;51.170;4.442;2022-08-21T13:13:00;34.10;66.10
25923;DHT22;13725;51.170;4.442;2022-08-21T13:15:30;33.80;66.50
25923;DHT22;13725;51.170;4.442;2022-08-21T13:17:56;33.40;66.50
25923;DHT22;13725;51.170;4.442;2022-08-21T13:20:33;33.00;67.10
25923;DHT22;13725;51.170;4.442;2022-08-21T13:25:56;32.30;69.10
25923;DHT22;13725;51.170;4.442;2022-08-21T13:28:22;32.20;70.00
25923;DHT22;13725;51.170;4.442;2022-08-21T13:30:50;32.50;70.80
25923;DHT22;13725;51.170;4.442;2022-08-21T13:33:20;32.90;69.50
25923;DHT22;13725;51.170;4.442;2022-08-21T13:38:24;32.90;69.20
25923;DHT22;13725;51.170;4.442;2022-08-21T13:41:02;32.60;69.50
25923;DHT22;13725;51.170;4.442;2022-08-21T13:43:36;32.00;70.00
25923;DHT22;13725;51.170;4.442;2022-08-21T13:46:07;32.20;70.20
25923;DHT22;13725;51.170;4.442;2022-08-21T13:48:34;33.10;68.80
25923;DHT22;13725;51.170;4.442;2022-08-21T13:51:01;33.90;67.90
25923;DHT22;13725;51.170;4.442;2022-08-21T13:53:33;34.70;66.90
25923;DHT22;13725;51.170;4.442;2022-08-21T13:56:01;35.70;64.90
25923;DHT22;13725;51.170;4.442;2022-08-21T13:58:45;36.90;63.30
25923;DHT22;13725;51.170;4.442;2022-08-21T14:01:21;36.90;62.60
25923;DHT22;13725;51.170;4.442;2022-08-21T14:03:49;35.70;63.90
25923;DHT22;13725;51.170;4.442;2022-08-21T14:06:22;34.70;64.40
25923;DHT22;13725;51.170;4.442;2022-08-21T14:08:52;33.60;65.30
25923;DHT22;13725;51.170;4.442;2022-08-21T14:11:19;32.50;66.60
25923;DHT22;13725;51.170;4.442;2022-08-21T14:13:55;31.90;68.60
25923;DHT22;13725;51.170;4.442;2022-08-21T14:16:25;31.30;70.50
25923;DHT22;13725;51.170;4.442;2022-08-21T14:19:07;30.70;70.90
25923;DHT22;13725;51.170;4.442;2022-08-21T14:21:38;30.70;72.00
25923;DHT22;13725;51.170;4.442;2022-08-21T14:24:14;30.70;72.20
25923;DHT22;13725;51.170;4.442;2022-08-21T14:27:02;30.60;72.70
25923;DHT22;13725;51.170;4.442;2022-08-21T14:29:36;30.70;72.60
25923;DHT22;13725;51.170;4.442;2022-08-21T14:34:37;30.50;72.50
25923;DHT22;13725;51.170;4.442;2022-08-21T14:37:03;30.30;72.80
25923;DHT22;13725;51.170;4.442;2022-08-21T14:39:29;30.20;74.10
25923;DHT22;13725;51.170;4.442;2022-08-21T14:41:54;30.10;73.70
25923;DHT22;13725;51.170;4.442;2022-08-21T14:44:22;30.10;74.50
25923;DHT22;13725;51.170;4.442;2022-08-21T14:46:48;30.20;74.60
25923;DHT22;13725;51.170;4.442;2022-08-21T14:49:14;30.20;74.00
25923;DHT22;13725;51.170;4.442;2022-08-21T14:51:39;30.30;74.90
25923;DHT22;13725;51.170;4.442;2022-08-21T14:54:06;30.10;74.70
25923;DHT22;13725;51.170;4.442;2022-08-21T14:56:33;29.90;75.00
25923;DHT22;13725;51.170;4.442;2022-08-21T14:59:03;29.90;75.40
25923;DHT22;13725;51.170;4.442;2022-08-21T15:01:30;29.70;75.80
25923;DHT22;13725;51.170;4.442;2022-08-21T15:03:57;29.70;76.00
25923;DHT22;13725;51.170;4.442;2022-08-21T15:06:23;29.60;76.20
25923;DHT22;13725;51.170;4.442;2022-08-21T15:08:49;29.60;77.70
25923;DHT22;13725;51.170;4.442;2022-08-21T15:11:19;29.40;76.60
25923;DHT22;13725;51.170;4.442;2022-08-21T15:13:47;29.20;76.00
25923;DHT22;13725;51.170;4.442;2022-08-21T15:16:13;28.90;75.50
25923;DHT22;13725;51.170;4.442;2022-08-21T15:18:39;28.80;76.70
25923;DHT22;13725;51.170;4.442;2022-08-21T15:21:05;28.80;78.10
25923;DHT22;13725;51.170;4.442;2022-08-21T15:23:30;28.80;77.20
25923;DHT22;13725;51.170;4.442;2022-08-21T15:25:56;28.80;77.50
25923;DHT22;13725;51.170;4.442;2022-08-21T15:28:24;28.80;78.20
25923;DHT22;13725;51.170;4.442;2022-08-21T15:30:50;28.70;75.90
25923;DHT22;13725;51.170;4.442;2022-08-21T15:33:17;28.70;79.30
25923;DHT22;13725;51.170;4.442;2022-08-21T15:35:43;28.80;78.50
25923;DHT22;13725;51.170;4.442;2022-08-21T15:38:10;28.80;78.80
25923;DHT22;13725;51.170;4.442;2022-08-21T15:40:36;28.70;79.30
25923;DHT22;13725;51.170;4.442;2022-08-21T15:43:04;28.70;79.50
25923;DHT22;13725;51.170;4.442;2022-08-21T15:45:30;28.70;78.80
25923;DHT22;13725;51.170;4.442;2022-08-21T15:47:56;28.70;78.40
25923;DHT22;13725;51.170;4.442;2022-08-21T15:50:23;28.60;78.50
25923;DHT22;13725;51.170;4.442;2022-08-21T15:52:49;28.60;78.90
25923;DHT22;13725;51.170;4.442;2022-08-21T15:55:15;28.60;79.20
25923;DHT22;13725;51.170;4.442;2022-08-21T15:57:48;28.50;80.10
25923;DHT22;13725;51.170;4.442;2022-08-21T16:00:22;28.50;80.10
25923;DHT22;13725;51.170;4.442;2022-08-21T16:02:52;28.40;80.10
25923;DHT22;13725;51.170;4.442;2022-08-21T16:05:20;28.30;80.70
25923;DHT22;13725;51.170;4.442;2022-08-21T16:07:47;28.20;81.20
25923;DHT22;13725;51.170;4.442;2022-08-21T16:10:16;28.10;82.50
25923;DHT22;13725;51.170;4.442;2022-08-21T16:12:46;28.00;83.00
25923;DHT22;13725;51.170;4.442;2022-08-21T16:15:14;27.90;83.10
25923;DHT22;13725;51.170;4.442;2022-08-21T16:17:41;27.80;83.30
25923;DHT22;13725;51.170;4.442;2022-08-21T16:20:12;27.70;83.40
25923;DHT22;13725;51.170;4.442;2022-08-21T16:22:38;27.60;83.40
25923;DHT22;13725;51.170;4.442;2022-08-21T16:25:05;27.50;83.90
25923;DHT22;13725;51.170;4.442;2022-08-21T16:27:32;27.40;84.40
25923;DHT22;13725;51.170;4.442;2022-08-21T16:29:58;27.20;85.00
25923;DHT22;13725;51.170;4.442;2022-08-21T16:32:23;27.10;85.90
25923;DHT22;13725;51.170;4.442;2022-08-21T16:34:49;27.00;87.00
25923;DHT22;13725;51.170;4.442;2022-08-21T16:37:16;26.90;87.60
25923;DHT22;13725;51.170;4.442;2022-08-21T16:39:42;26.80;88.00
25923;DHT22;13725;51.170;4.442;2022-08-21T16:42:12;26.50;88.50
25923;DHT22;13725;51.170;4.442;2022-08-21T16:44:38;26.40;88.70
25923;DHT22;13725;51.170;4.442;2022-08-21T16:47:04;26.20;89.70
25923;DHT22;13725;51.170;4.442;2022-08-21T16:49:30;26.10;90.00
25923;DHT22;13725;51.170;4.442;2022-08-21T16:51:57;26.00;90.10
25923;DHT22;13725;51.170;4.442;2022-08-21T16:54:22;25.80;90.50
25923;DHT22;13725;51.170;4.442;2022-08-21T16:56:49;25.80;90.90
25923;DHT22;13725;51.170;4.442;2022-08-21T16:59:15;25.70;91.10